sensor_id;sensor_type;location;lat;lon;timestamp;pressure;altitude;pressure_sealevel;temperature;humidity
11643;BME280;5877;50.930;6.918;2022-09-09T00:04:33;100190.72;;;16.44;68.81
11643;BME280;5877;50.930;6.918;2022-09-09T00:07:15;100255.19;;;16.65;69.68
11643;BME280;5877;50.930;6.918;2022-09-09T00:12:48;100285.69;;;16.67;70.38
11643;BME280;5877;50.930;6.918;2022-09-09T00:15:20;100204.28;;;16.00;70.87
11643;BME280;5877;50.930;6.918;2022-09-09T00:17:56;100275.50;;;16.49;71.27
11643;BME280;5877;50.930;6.918;2022-09-09T00:20:55;100277.38;;;16.53;70.90
11643;BME280;5877;50.930;6.918;2022-09-09T00:23:53;100276.06;;;16.56;70.82
11643;BME280;5877;50.930;6.918;2022-09-09T00:31:35;100285.34;;;16.59;70.56
11643;BME280;5877;50.930;6.918;2022-09-09T00:34:16;100103.47;;;15.49;70.65
11643;BME280;5877;50.930;6.918;2022-09-09T00:36:45;100267.84;;;16.58;70.17
11643;BME280;5877;50.930;6.918;2022-09-09T00:39:36;100205.72;;;16.18;69.47
11643;BME280;5877;50.930;6.918;2022-09-09T00:42:11;100283.06;;;16.82;69.39
11643;BME280;5877;50.930;6.918;2022-09-09T00:47:40;100272.22;;;16.89;67.30
11643;BME280;5877;50.930;6.918;2022-09-09T00:52:55;100270.63;;;16.88;66.92
11643;BME280;5877;50.930;6.918;2022-09-09T00:58:01;100103.75;;;15.53;66.64
11643;BME280;5877;50.930;6.918;2022-09-09T01:00:31;100248.47;;;16.47;66.76
11643;BME280;5877;50.930;6.918;2022-09-09T01:06:01;100286.69;;;16.61;67.25
11643;BME280;5877;50.930;6.918;2022-09-09T01:11:37;100255.63;;;16.46;66.22
11643;BME280;5877;50.930;6.918;2022-09-09T01:14:29;100275.88;;;16.73;66.04
11643;BME280;5877;50.930;6.918;2022-09-09T01:17:05;100225.09;;;16.34;66.28
11643;BME280;5877;50.930;6.918;2022-09-09T01:22:52;100183.84;;;15.85;67.11
11643;BME280;5877;50.930;6.918;2022-09-09T01:28:25;100217.94;;;15.77;68.86
11643;BME280;5877;50.930;6.918;2022-09-09T01:30:58;100164.19;;;15.34;68.70
11643;BME280;5877;50.930;6.918;2022-09-09T01:33:31;100276.31;;;16.02;69.36
11643;BME280;5877;50.930;6.918;2022-09-09T01:38:41;100140.88;;;14.94;70.10
11643;BME280;5877;50.930;6.918;2022-09-09T01:41:08;100178.06;;;15.14;70.49
11643;BME280;5877;50.930;6.918;2022-09-09T01:43:43;100123.59;;;14.81;70.67
11643;BME280;5877;50.930;6.918;2022-09-09T01:46:11;100168.00;;;15.11;70.93
11643;BME280;5877;50.930;6.918;2022-09-09T01:48:45;100278.00;;;15.76;71.03
11643;BME280;5877;50.930;6.918;2022-09-09T01:51:11;100111.56;;;14.64;71.26
11643;BME280;5877;50.930;6.918;2022-09-09T01:53:40;100101.50;;;14.60;71.36
11643;BME280;5877;50.930;6.918;2022-09-09T01:56:17;100286.22;;;15.80;71.36
11643;BME280;5877;50.930;6.918;2022-09-09T02:04:45;100124.06;;;15.05;70.18
11643;BME280;5877;50.930;6.918;2022-09-09T02:07:41;100288.28;;;16.10;70.26
11643;BME280;5877;50.930;6.918;2022-09-09T02:13:28;100126.25;;;15.13;69.88
11643;BME280;5877;50.930;6.918;2022-09-09T02:18:38;100222.41;;;15.76;70.18
11643;BME280;5877;50.930;6.918;2022-09-09T02:21:09;100069.09;;;14.70;70.44
11643;BME280;5877;50.930;6.918;2022-09-09T02:23:39;100282.47;;;16.13;70.73
11643;BME280;5877;50.930;6.918;2022-09-09T02:26:12;100090.63;;;14.89;70.50
11643;BME280;5877;50.930;6.918;2022-09-09T02:28:41;100277.44;;;16.11;70.80
11643;BME280;5877;50.930;6.918;2022-09-09T02:31:08;100277.94;;;16.08;70.79
11643;BME280;5877;50.930;6.918;2022-09-09T02:33:43;100272.13;;;16.11;70.72
11643;BME280;5877;50.930;6.918;2022-09-09T02:36:12;100266.03;;;16.11;70.48
11643;BME280;5877;50.930;6.918;2022-09-09T02:38:46;100271.84;;;16.08;70.62
11643;BME280;5877;50.930;6.918;2022-09-09T02:41:20;100236.50;;;15.87;71.02
11643;BME280;5877;50.930;6.918;2022-09-09T02:43:49;100235.13;;;15.79;71.43
11643;BME280;5877;50.930;6.918;2022-09-09T02:49:09;100220.22;;;15.63;70.98
11643;BME280;5877;50.930;6.918;2022-09-09T02:52:00;100269.94;;;15.98;71.54
11643;BME280;5877;50.930;6.918;2022-09-09T02:54:34;100231.91;;;15.72;71.33
11643;BME280;5877;50.930;6.918;2022-09-09T02:57:27;100128.81;;;15.03;70.84
11643;BME280;5877;50.930;6.918;2022-09-09T03:00:00;100070.63;;;14.66;71.23
11643;BME280;5877;50.930;6.918;2022-09-09T03:02:30;100292.72;;;15.99;71.07
11643;BME280;5877;50.930;6.918;2022-09-09T03:05:03;100266.78;;;16.01;70.99
11643;BME280;5877;50.930;6.918;2022-09-09T03:07:31;100265.47;;;16.04;71.07
11643;BME280;5877;50.930;6.918;2022-09-09T03:09:58;100280.31;;;16.05;70.91
11643;BME280;5877;50.930;6.918;2022-09-09T03:12:26;100194.28;;;15.60;70.75
11643;BME280;5877;50.930;6.918;2022-09-09T03:14:53;100258.06;;;16.06;70.58
11643;BME280;5877;50.930;6.918;2022-09-09T03:17:20;100197.50;;;15.67;70.66
11643;BME280;5877;50.930;6.918;2022-09-09T03:19:51;100270.78;;;16.09;70.47
11643;BME280;5877;50.930;6.918;2022-09-09T03:22:21;100221.94;;;15.84;70.55
11643;BME280;5877;50.930;6.918;2022-09-09T03:24:48;99965.38;;;14.21;70.11
11643;BME280;5877;50.930;6.918;2022-09-09T03:27:15;100258.09;;;16.11;70.63
11643;BME280;5877;50.930;6.918;2022-09-09T03:29:43;100252.81;;;16.11;70.69
11643;BME280;5877;50.930;6.918;2022-09-09T03:32:15;100261.53;;;16.11;70.50
11643;BME280;5877;50.930;6.918;2022-09-09T03:34:44;100259.19;;;16.15;70.57
11643;BME280;5877;50.930;6.918;2022-09-09T03:37:12;100260.22;;;16.14;70.46
11643;BME280;5877;50.930;6.918;2022-09-09T03:39:39;100264.72;;;16.13;70.51
11643;BME280;5877;50.930;6.918;2022-09-09T03:42:08;100245.94;;;16.15;70.72
11643;BME280;5877;50.930;6.918;2022-09-09T03:44:34;100257.59;;;16.14;70.66
11643;BME280;5877;50.930;6.918;2022-09-09T03:47:01;100236.81;;;15.90;70.76
11643;BME280;5877;50.930;6.918;2022-09-09T03:49:28;100120.22;;;15.23;70.67
11643;BME280;5877;50.930;6.918;2022-09-09T03:51:56;100180.53;;;15.58;70.89
11643;BME280;5877;50.930;6.918;2022-09-09T03:54:26;100130.59;;;15.30;70.62
11643;BME280;5877;50.930;6.918;2022-09-09T03:56:55;100137.75;;;15.34;71.05
11643;BME280;5877;50.930;6.918;2022-09-09T03:59:22;100267.38;;;16.13;71.15
11643;BME280;5877;50.930;6.918;2022-09-09T04:01:49;100158.47;;;15.47;70.57
11643;BME280;5877;50.930;6.918;2022-09-09T04:04:16;100257.59;;;16.14;71.22
11643;BME280;5877;50.930;6.918;2022-09-09T04:06:42;100161.38;;;15.46;71.13
11643;BME280;5877;50.930;6.918;2022-09-09T04:09:09;100259.69;;;16.12;71.24
11643;BME280;5877;50.930;6.918;2022-09-09T04:11:36;100224.63;;;15.89;71.13
11643;BME280;5877;50.930;6.918;2022-09-09T04:14:03;100188.53;;;15.73;71.21
11643;BME280;5877;50.930;6.918;2022-09-09T04:16:33;100186.13;;;15.72;71.18
11643;BME280;5877;50.930;6.918;2022-09-09T04:19:01;100163.00;;;15.52;71.09
11643;BME280;5877;50.930;6.918;2022-09-09T04:21:30;100128.19;;;15.28;71.30
11643;BME280;5877;50.930;6.918;2022-09-09T04:23:59;100088.16;;;15.09;70.91
11643;BME280;5877;50.930;6.918;2022-09-09T04:26:26;100093.69;;;15.08;71.03
11643;BME280;5877;50.930;6.918;2022-09-09T04:28:53;100255.47;;;16.16;71.18
11643;BME280;5877;50.930;6.918;2022-09-09T04:31:22;100119.53;;;15.38;70.77
11643;BME280;5877;50.930;6.918;2022-09-09T04:33:53;100014.25;;;14.50;70.93
11643;BME280;5877;50.930;6.918;2022-09-09T04:36:24;100105.13;;;15.18;70.98
11643;BME280;5877;50.930;6.918;2022-09-09T04:38:55;100222.53;;;15.97;71.01
11643;BME280;5877;50.930;6.918;2022-09-09T04:41:22;100124.00;;;15.32;71.41
11643;BME280;5877;50.930;6.918;2022-09-09T04:43:51;100260.50;;;16.17;70.68
11643;BME280;5877;50.930;6.918;2022-09-09T04:46:21;100172.59;;;15.63;70.59
11643;BME280;5877;50.930;6.918;2022-09-09T04:48:50;100113.88;;;15.24;70.71
11643;BME280;5877;50.930;6.918;2022-09-09T04:51:17;100261.06;;;16.19;70.49
11643;BME280;5877;50.930;6.918;2022-09-09T04:53:46;100264.75;;;16.18;70.93
11643;BME280;5877;50.930;6.918;2022-09-09T04:56:16;100229.16;;;15.99;70.82
11643;BME280;5877;50.930;6.918;2022-09-09T04:58:50;100140.19;;;15.41;70.34
11643;BME280;5877;50.930;6.918;2022-09-09T05:01:21;100135.44;;;15.43;70.31
11643;BME280;5877;50.930;6.918;2022-09-09T05:03:50;100089.97;;;15.04;70.54
11643;BME280;5877;50.930;6.918;2022-09-09T05:06:21;100068.00;;;15.03;70.58
11643;BME280;5877;50.930;6.918;2022-09-09T05:08:52;100143.69;;;15.51;70.78
11643;BME280;5877;50.930;6.918;2022-09-09T05:11:26;100110.50;;;15.34;70.78
11643;BME280;5877;50.930;6.918;2022-09-09T05:13:59;100266.66;;;16.28;70.63
11643;BME280;5877;50.930;6.918;2022-09-09T05:16:28;100268.00;;;16.31;70.91
11643;BME280;5877;50.930;6.918;2022-09-09T05:18:55;100065.09;;;15.00;70.62
11643;BME280;5877;50.930;6.918;2022-09-09T05:21:23;100261.38;;;16.33;70.67
11643;BME280;5877;50.930;6.918;2022-09-09T05:23:52;100111.06;;;15.36;70.83
11643;BME280;5877;50.930;6.918;2022-09-09T05:26:21;100038.59;;;14.89;70.19
11643;BME280;5877;50.930;6.918;2022-09-09T05:28:50;100222.88;;;16.10;70.23
11643;BME280;5877;50.930;6.918;2022-09-09T05:31:17;100262.47;;;16.37;70.27
11643;BME280;5877;50.930;6.918;2022-09-09T05:33:48;100265.66;;;16.39;70.05
11643;BME280;5877;50.930;6.918;2022-09-09T05:36:20;100272.25;;;16.37;70.11
11643;BME280;5877;50.930;6.918;2022-09-09T05:38:52;100106.28;;;15.33;70.33
11643;BME280;5877;50.930;6.918;2022-09-09T05:41:24;100140.53;;;15.54;70.47
11643;BME280;5877;50.930;6.918;2022-09-09T05:43:54;100231.91;;;16.14;69.88
11643;BME280;5877;50.930;6.918;2022-09-09T05:46:23;100201.88;;;15.94;70.17
11643;BME280;5877;50.930;6.918;2022-09-09T05:48:52;100111.63;;;15.43;69.91
11643;BME280;5877;50.930;6.918;2022-09-09T05:51:26;100284.78;;;16.51;69.63
11643;BME280;5877;50.930;6.918;2022-09-09T05:53:56;100281.34;;;16.56;69.37
11643;BME280;5877;50.930;6.918;2022-09-09T05:56:28;100271.56;;;16.62;69.18
11643;BME280;5877;50.930;6.918;2022-09-09T05:58:57;100124.47;;;15.66;68.51
11643;BME280;5877;50.930;6.918;2022-09-09T06:01:28;100279.88;;;16.75;68.18
11643;BME280;5877;50.930;6.918;2022-09-09T06:03:57;100171.00;;;16.14;67.67
11643;BME280;5877;50.930;6.918;2022-09-09T06:06:31;100282.84;;;16.94;67.27
11643;BME280;5877;50.930;6.918;2022-09-09T06:08:59;100090.72;;;15.99;66.84
11643;BME280;5877;50.930;6.918;2022-09-09T06:11:33;100083.31;;;16.01;66.22
11643;BME280;5877;50.930;6.918;2022-09-09T06:14:03;100187.03;;;16.60;65.87
11643;BME280;5877;50.930;6.918;2022-09-09T06:16:31;100287.94;;;17.26;65.68
11643;BME280;5877;50.930;6.918;2022-09-09T06:19:00;100261.13;;;17.12;65.56
11643;BME280;5877;50.930;6.918;2022-09-09T06:21:31;100109.59;;;16.17;65.07
11643;BME280;5877;50.930;6.918;2022-09-09T06:24:00;100291.41;;;17.37;65.25
11643;BME280;5877;50.930;6.918;2022-09-09T06:26:35;100255.59;;;17.24;64.73
11643;BME280;5877;50.930;6.918;2022-09-09T06:29:04;100122.13;;;16.52;64.59
11643;BME280;5877;50.930;6.918;2022-09-09T06:31:32;100281.63;;;17.78;63.72
11643;BME280;5877;50.930;6.918;2022-09-09T06:34:08;100242.06;;;17.71;63.15
11643;BME280;5877;50.930;6.918;2022-09-09T06:36:39;100281.06;;;18.76;60.94
11643;BME280;5877;50.930;6.918;2022-09-09T06:39:06;100169.41;;;19.10;57.87
11643;BME280;5877;50.930;6.918;2022-09-09T06:41:40;100222.28;;;21.07;53.00
11643;BME280;5877;50.930;6.918;2022-09-09T06:44:18;100274.34;;;21.75;51.84
11643;BME280;5877;50.930;6.918;2022-09-09T06:46:45;100267.06;;;21.11;52.97
11643;BME280;5877;50.930;6.918;2022-09-09T06:49:16;100159.47;;;20.02;53.85
11643;BME280;5877;50.930;6.918;2022-09-09T06:51:42;100268.19;;;21.75;51.44
11643;BME280;5877;50.930;6.918;2022-09-09T06:54:12;100269.72;;;23.57;46.95
11643;BME280;5877;50.930;6.918;2022-09-09T06:56:42;100263.16;;;24.43;44.83
11643;BME280;5877;50.930;6.918;2022-09-09T06:59:20;100264.69;;;25.18;42.96
11643;BME280;5877;50.930;6.918;2022-09-09T07:01:47;100215.69;;;25.85;40.67
11643;BME280;5877;50.930;6.918;2022-09-09T07:04:21;100241.47;;;26.87;38.58
11643;BME280;5877;50.930;6.918;2022-09-09T07:06:48;100143.97;;;26.93;37.32
11643;BME280;5877;50.930;6.918;2022-09-09T07:09:20;100118.47;;;27.11;36.19
11643;BME280;5877;50.930;6.918;2022-09-09T07:11:50;100252.53;;;28.69;35.40
11643;BME280;5877;50.930;6.918;2022-09-09T07:14:22;99945.00;;;26.92;35.01
11643;BME280;5877;50.930;6.918;2022-09-09T07:16:58;100254.69;;;29.32;33.87
11643;BME280;5877;50.930;6.918;2022-09-09T07:19:33;100236.00;;;29.55;33.05
11643;BME280;5877;50.930;6.918;2022-09-09T07:22:03;100255.63;;;29.24;33.47
11643;BME280;5877;50.930;6.918;2022-09-09T07:24:30;100259.47;;;29.66;33.10
11643;BME280;5877;50.930;6.918;2022-09-09T07:26:57;100261.22;;;29.90;32.10
11643;BME280;5877;50.930;6.918;2022-09-09T07:29:25;100234.22;;;30.25;30.86
11643;BME280;5877;50.930;6.918;2022-09-09T07:31:52;100265.25;;;30.12;31.92
11643;BME280;5877;50.930;6.918;2022-09-09T07:34:24;100272.53;;;30.78;31.01
11643;BME280;5877;50.930;6.918;2022-09-09T07:36:55;100128.41;;;30.34;29.78
11643;BME280;5877;50.930;6.918;2022-09-09T07:39:24;100090.47;;;29.29;30.78
11643;BME280;5877;50.930;6.918;2022-09-09T07:41:53;100277.56;;;30.10;30.99
11643;BME280;5877;50.930;6.918;2022-09-09T07:44:24;100272.31;;;30.17;30.63
11643;BME280;5877;50.930;6.918;2022-09-09T07:47:05;100269.88;;;30.62;29.79
11643;BME280;5877;50.930;6.918;2022-09-09T07:49:36;100227.91;;;29.27;31.59
11643;BME280;5877;50.930;6.918;2022-09-09T07:52:04;100141.28;;;28.11;32.31
11643;BME280;5877;50.930;6.918;2022-09-09T07:54:39;100152.44;;;26.71;34.07
11643;BME280;5877;50.930;6.918;2022-09-09T07:57:06;100259.59;;;25.98;36.17
11643;BME280;5877;50.930;6.918;2022-09-09T07:59:35;100149.97;;;24.23;38.19
11643;BME280;5877;50.930;6.918;2022-09-09T08:02:02;100292.19;;;24.41;39.56
11643;BME280;5877;50.930;6.918;2022-09-09T08:04:31;100288.66;;;23.92;40.60
11643;BME280;5877;50.930;6.918;2022-09-09T08:07:00;100271.56;;;23.26;41.73
11643;BME280;5877;50.930;6.918;2022-09-09T08:09:30;100304.22;;;23.14;42.26
11643;BME280;5877;50.930;6.918;2022-09-09T08:12:05;100221.16;;;22.20;43.74
11643;BME280;5877;50.930;6.918;2022-09-09T08:14:33;100097.84;;;21.12;44.02
11643;BME280;5877;50.930;6.918;2022-09-09T08:17:03;100303.22;;;22.19;44.47
11643;BME280;5877;50.930;6.918;2022-09-09T08:19:31;100296.19;;;22.10;44.66
11643;BME280;5877;50.930;6.918;2022-09-09T08:22:02;100150.81;;;21.04;44.48
11643;BME280;5877;50.930;6.918;2022-09-09T08:24:32;100295.53;;;21.85;45.53
11643;BME280;5877;50.930;6.918;2022-09-09T08:26:58;100289.59;;;21.88;45.68
11643;BME280;5877;50.930;6.918;2022-09-09T08:29:26;100300.34;;;22.02;44.83
11643;BME280;5877;50.930;6.918;2022-09-09T08:31:56;100234.38;;;21.84;44.25
11643;BME280;5877;50.930;6.918;2022-09-09T08:34:26;100319.66;;;22.67;43.36
11643;BME280;5877;50.930;6.918;2022-09-09T08:36:55;100156.38;;;22.59;41.18
11643;BME280;5877;50.930;6.918;2022-09-09T08:39:28;100213.09;;;24.30;37.73
11643;BME280;5877;50.930;6.918;2022-09-09T08:50:17;100308.00;;;23.13;40.35
11643;BME280;5877;50.930;6.918;2022-09-09T08:53:03;100244.41;;;22.19;41.07
11643;BME280;5877;50.930;6.918;2022-09-09T08:55:52;100146.38;;;21.46;41.46
11643;BME280;5877;50.930;6.918;2022-09-09T09:01:29;100303.91;;;22.66;41.33
11643;BME280;5877;50.930;6.918;2022-09-09T09:07:36;100243.66;;;22.68;40.00
11643;BME280;5877;50.930;6.918;2022-09-09T09:13:23;100140.25;;;22.14;40.35
11643;BME280;5877;50.930;6.918;2022-09-09T09:16:00;100306.34;;;23.48;40.29
11643;BME280;5877;50.930;6.918;2022-09-09T09:18:33;100206.75;;;22.93;40.37
11643;BME280;5877;50.930;6.918;2022-09-09T09:23:41;100316.50;;;22.79;41.29
11643;BME280;5877;50.930;6.918;2022-09-09T09:26:10;100323.72;;;22.65;42.26
11643;BME280;5877;50.930;6.918;2022-09-09T09:28:41;100319.69;;;22.26;42.87
11643;BME280;5877;50.930;6.918;2022-09-09T09:31:15;100327.47;;;22.09;42.89
11643;BME280;5877;50.930;6.918;2022-09-09T09:33:49;100160.63;;;20.90;43.68
11643;BME280;5877;50.930;6.918;2022-09-09T09:36:21;100172.41;;;20.89;44.21
11643;BME280;5877;50.930;6.918;2022-09-09T09:38:58;100260.34;;;21.64;43.93
11643;BME280;5877;50.930;6.918;2022-09-09T09:41:47;100191.41;;;21.66;43.42
11643;BME280;5877;50.930;6.918;2022-09-09T09:44:26;100327.78;;;22.76;42.41
11643;BME280;5877;50.930;6.918;2022-09-09T09:47:11;100324.25;;;22.40;43.57
11643;BME280;5877;50.930;6.918;2022-09-09T09:49:59;100317.97;;;22.17;43.88
11643;BME280;5877;50.930;6.918;2022-09-09T09:52:32;100197.59;;;21.34;44.27
11643;BME280;5877;50.930;6.918;2022-09-09T09:55:03;100263.78;;;21.97;43.68
11643;BME280;5877;50.930;6.918;2022-09-09T09:57:34;100321.56;;;22.67;42.63
11643;BME280;5877;50.930;6.918;2022-09-09T10:00:18;100251.22;;;22.53;41.78
11643;BME280;5877;50.930;6.918;2022-09-09T10:02:55;100322.06;;;23.19;41.47
11643;BME280;5877;50.930;6.918;2022-09-09T10:05:29;100257.44;;;23.12;41.20
11643;BME280;5877;50.930;6.918;2022-09-09T10:08:12;100320.88;;;23.70;40.24
11643;BME280;5877;50.930;6.918;2022-09-09T10:15:58;100288.19;;;22.37;42.06
11643;BME280;5877;50.930;6.918;2022-09-09T10:21:32;100314.41;;;22.62;42.51
11643;BME280;5877;50.930;6.918;2022-09-09T10:35:02;100312.63;;;22.58;42.81
11643;BME280;5877;50.930;6.918;2022-09-09T10:40:42;100305.53;;;23.39;40.76
11643;BME280;5877;50.930;6.918;2022-09-09T10:51:46;100264.38;;;23.35;40.46
11643;BME280;5877;50.930;6.918;2022-09-09T10:56:56;100177.72;;;23.09;39.52
11643;BME280;5877;50.930;6.918;2022-09-09T10:59:33;100117.59;;;22.70;39.65
11643;BME280;5877;50.930;6.918;2022-09-09T11:02:19;100246.84;;;23.07;40.40
11643;BME280;5877;50.930;6.918;2022-09-09T11:05:02;100259.03;;;22.63;41.54
11643;BME280;5877;50.930;6.918;2022-09-09T11:07:39;100254.13;;;22.79;41.73
11643;BME280;5877;50.930;6.918;2022-09-09T11:10:17;100195.34;;;22.51;41.29
11643;BME280;5877;50.930;6.918;2022-09-09T11:12:47;100288.22;;;23.45;40.33
11643;BME280;5877;50.930;6.918;2022-09-09T11:15:25;100282.97;;;23.85;40.02
11643;BME280;5877;50.930;6.918;2022-09-09T11:18:01;100251.75;;;23.58;40.08
11643;BME280;5877;50.930;6.918;2022-09-09T11:20:29;100293.94;;;23.52;39.87
11643;BME280;5877;50.930;6.918;2022-09-09T11:23:05;100139.63;;;22.31;40.17
11643;BME280;5877;50.930;6.918;2022-09-09T11:25:41;100295.41;;;23.14;40.83
11643;BME280;5877;50.930;6.918;2022-09-09T11:36:56;100285.19;;;23.16;40.02
11643;BME280;5877;50.930;6.918;2022-09-09T11:39:35;100278.00;;;23.25;40.45
11643;BME280;5877;50.930;6.918;2022-09-09T11:44:38;100113.63;;;21.82;40.78
11643;BME280;5877;50.930;6.918;2022-09-09T11:47:17;100279.88;;;23.47;39.78
11643;BME280;5877;50.930;6.918;2022-09-09T11:49:45;100257.03;;;23.72;38.92
11643;BME280;5877;50.930;6.918;2022-09-09T11:52:39;100270.38;;;23.94;39.03
11643;BME280;5877;50.930;6.918;2022-09-09T11:55:11;100281.56;;;23.87;38.98
11643;BME280;5877;50.930;6.918;2022-09-09T11:57:38;100151.94;;;22.90;38.41
11643;BME280;5877;50.930;6.918;2022-09-09T12:00:06;100276.97;;;23.88;38.82
11643;BME280;5877;50.930;6.918;2022-09-09T12:02:48;100278.59;;;23.67;38.98
11643;BME280;5877;50.930;6.918;2022-09-09T12:05:16;100120.28;;;22.48;39.44
11643;BME280;5877;50.930;6.918;2022-09-09T12:10:23;100274.22;;;22.54;40.91
11643;BME280;5877;50.930;6.918;2022-09-09T12:12:52;100192.78;;;21.64;41.80
11643;BME280;5877;50.930;6.918;2022-09-09T12:15:26;100283.22;;;22.17;42.18
11643;BME280;5877;50.930;6.918;2022-09-09T12:17:57;100284.91;;;22.26;42.10
11643;BME280;5877;50.930;6.918;2022-09-09T12:20:39;100281.84;;;22.33;41.38
11643;BME280;5877;50.930;6.918;2022-09-09T12:23:27;100276.28;;;22.57;40.75
11643;BME280;5877;50.930;6.918;2022-09-09T12:26:09;100274.56;;;22.88;40.12
11643;BME280;5877;50.930;6.918;2022-09-09T12:34:16;100090.59;;;22.35;39.35
11643;BME280;5877;50.930;6.918;2022-09-09T12:36:49;100243.38;;;23.06;39.94
11643;BME280;5877;50.930;6.918;2022-09-09T12:39:29;100276.66;;;23.14;40.39
11643;BME280;5877;50.930;6.918;2022-09-09T12:41:58;100269.81;;;22.85;40.82
11643;BME280;5877;50.930;6.918;2022-09-09T12:44:26;100266.25;;;22.62;41.63
11643;BME280;5877;50.930;6.918;2022-09-09T12:46:56;100267.28;;;22.53;42.02
11643;BME280;5877;50.930;6.918;2022-09-09T12:49:38;100131.84;;;21.52;41.74
11643;BME280;5877;50.930;6.918;2022-09-09T12:52:15;100243.31;;;22.48;42.30
11643;BME280;5877;50.930;6.918;2022-09-09T12:54:45;100204.66;;;22.54;41.89
11643;BME280;5877;50.930;6.918;2022-09-09T12:57:14;100259.53;;;23.46;40.68
11643;BME280;5877;50.930;6.918;2022-09-09T12:59:43;100261.28;;;24.04;39.13
11643;BME280;5877;50.930;6.918;2022-09-09T13:02:19;100253.50;;;24.33;38.37
11643;BME280;5877;50.930;6.918;2022-09-09T13:04:46;100244.47;;;24.20;38.79
11643;BME280;5877;50.930;6.918;2022-09-09T13:07:13;100241.03;;;23.89;39.32
11643;BME280;5877;50.930;6.918;2022-09-09T13:09:44;100204.34;;;23.36;39.66
11643;BME280;5877;50.930;6.918;2022-09-09T13:12:22;100210.22;;;23.16;40.63
11643;BME280;5877;50.930;6.918;2022-09-09T13:14:53;100189.22;;;23.09;40.83
11643;BME280;5877;50.930;6.918;2022-09-09T13:17:23;100121.31;;;23.05;40.44
11643;BME280;5877;50.930;6.918;2022-09-09T13:19:51;100192.97;;;23.30;40.37
11643;BME280;5877;50.930;6.918;2022-09-09T13:22:27;100165.56;;;23.03;40.37
11643;BME280;5877;50.930;6.918;2022-09-09T13:25:05;100039.13;;;22.30;40.48
11643;BME280;5877;50.930;6.918;2022-09-09T13:27:35;100170.28;;;23.28;40.28
11643;BME280;5877;50.930;6.918;2022-09-09T13:30:25;100232.13;;;23.71;40.18
11643;BME280;5877;50.930;6.918;2022-09-09T13:38:15;100101.69;;;22.87;41.01
11643;BME280;5877;50.930;6.918;2022-09-09T13:41:03;100075.66;;;22.57;41.19
11643;BME280;5877;50.930;6.918;2022-09-09T13:43:37;100101.91;;;22.77;41.33
11643;BME280;5877;50.930;6.918;2022-09-09T13:46:24;100085.00;;;23.13;40.78
11643;BME280;5877;50.930;6.918;2022-09-09T13:49:03;100229.09;;;24.69;39.54
11643;BME280;5877;50.930;6.918;2022-09-09T13:51:47;100028.59;;;23.57;39.28
11643;BME280;5877;50.930;6.918;2022-09-09T13:54:18;100233.69;;;24.86;39.51
11643;BME280;5877;50.930;6.918;2022-09-09T13:56:46;100158.03;;;23.75;40.28
11643;BME280;5877;50.930;6.918;2022-09-09T13:59:14;100142.53;;;23.24;40.64
11643;BME280;5877;50.930;6.918;2022-09-09T14:01:42;100035.44;;;22.03;42.25
11643;BME280;5877;50.930;6.918;2022-09-09T14:04:09;100221.63;;;22.85;43.59
11643;BME280;5877;50.930;6.918;2022-09-09T14:06:37;100213.13;;;22.83;43.89
11643;BME280;5877;50.930;6.918;2022-09-09T14:09:13;100223.34;;;22.67;43.93
11643;BME280;5877;50.930;6.918;2022-09-09T14:11:40;100220.91;;;22.57;44.72
11643;BME280;5877;50.930;6.918;2022-09-09T14:14:07;100006.22;;;21.02;45.29
11643;BME280;5877;50.930;6.918;2022-09-09T14:16:34;100179.44;;;21.91;45.03
11643;BME280;5877;50.930;6.918;2022-09-09T14:19:01;100236.09;;;22.21;45.81
11643;BME280;5877;50.930;6.918;2022-09-09T14:21:28;100232.63;;;22.07;45.38
11643;BME280;5877;50.930;6.918;2022-09-09T14:23:55;100051.22;;;20.63;45.59
11643;BME280;5877;50.930;6.918;2022-09-09T14:26:24;100177.84;;;21.49;45.80
11643;BME280;5877;50.930;6.918;2022-09-09T14:28:52;100136.28;;;21.11;45.66
11643;BME280;5877;50.930;6.918;2022-09-09T14:31:22;100153.59;;;21.13;52.35
11643;BME280;5877;50.930;6.918;2022-09-09T14:33:49;100023.28;;;19.85;55.78
11643;BME280;5877;50.930;6.918;2022-09-09T14:36:17;100277.44;;;20.93;58.84
11643;BME280;5877;50.930;6.918;2022-09-09T14:38:44;100280.13;;;20.56;60.91
11643;BME280;5877;50.930;6.918;2022-09-09T14:41:13;100068.53;;;18.50;62.22
11643;BME280;5877;50.930;6.918;2022-09-09T14:43:43;100170.97;;;18.77;65.43
11643;BME280;5877;50.930;6.918;2022-09-09T14:46:12;100192.78;;;18.79;64.39
11643;BME280;5877;50.930;6.918;2022-09-09T14:48:39;100273.97;;;19.44;65.80
11643;BME280;5877;50.930;6.918;2022-09-09T14:51:15;100181.38;;;18.73;64.04
11643;BME280;5877;50.930;6.918;2022-09-09T14:53:43;100085.69;;;18.29;64.29
11643;BME280;5877;50.930;6.918;2022-09-09T14:56:11;100264.88;;;19.51;63.21
11643;BME280;5877;50.930;6.918;2022-09-09T14:58:38;100164.94;;;19.05;62.79
11643;BME280;5877;50.930;6.918;2022-09-09T15:01:10;100267.50;;;19.90;61.59
11643;BME280;5877;50.930;6.918;2022-09-09T15:03:38;100120.41;;;19.16;59.87
11643;BME280;5877;50.930;6.918;2022-09-09T15:06:13;100195.97;;;20.02;60.12
11643;BME280;5877;50.930;6.918;2022-09-09T15:08:43;100266.22;;;20.59;59.25
11643;BME280;5877;50.930;6.918;2022-09-09T15:11:11;100178.00;;;20.31;58.16
11643;BME280;5877;50.930;6.918;2022-09-09T15:13:40;100156.44;;;20.09;58.51
11643;BME280;5877;50.930;6.918;2022-09-09T15:16:15;100259.34;;;20.90;57.87
11643;BME280;5877;50.930;6.918;2022-09-09T15:18:43;100265.13;;;20.97;58.03
11643;BME280;5877;50.930;6.918;2022-09-09T15:21:14;100286.69;;;21.01;58.65
11643;BME280;5877;50.930;6.918;2022-09-09T15:23:42;100278.25;;;21.13;59.14
11643;BME280;5877;50.930;6.918;2022-09-09T15:26:09;100284.44;;;21.08;60.09
11643;BME280;5877;50.930;6.918;2022-09-09T15:28:38;100278.31;;;21.07;60.64
11643;BME280;5877;50.930;6.918;2022-09-09T15:31:07;100162.53;;;20.33;61.34
11643;BME280;5877;50.930;6.918;2022-09-09T15:33:35;100195.09;;;20.30;61.21